sensor_id;sensor_type;location;lat;lon;timestamp;pressure;altitude;pressure_sealevel;temperature;humidity
66560;BME280;53413;49.878;8.142;2024-02-23T00:02:06;97633.16;;;7.03;100.00
66560;BME280;53413;49.878;8.142;2024-02-23T00:04:31;97632.72;;;6.97;100.00
66560;BME280;53413;49.878;8.142;2024-02-23T00:06:57;97634.75;;;6.91;100.00
66560;BME280;53413;49.878;8.142;2024-02-23T00:09:22;97629.94;;;6.85;100.00
66560;BME280;53413;49.878;8.142;2024-02-23T00:11:47;97631.13;;;6.80;100.00
66560;BME280;53413;49.878;8.142;2024-02-23T00:14:15;97632.44;;;6.72;100.00
66560;BME280;53413;49.878;8.142;2024-02-23T00:16:41;97647.69;;;6.64;100.00
66560;BME280;53413;49.878;8.142;2024-02-23T00:19:08;97661.81;;;6.60;100.00
66560;BME280;53413;49.878;8.142;2024-02-23T00:21:35;97661.34;;;6.53;100.00
66560;BME280;53413;49.878;8.142;2024-02-23T00:24:00;97664.22;;;6.49;100.00
66560;BME280;53413;49.878;8.142;2024-02-23T00:26:26;97680.19;;;6.42;100.00
66560;BME280;53413;49.878;8.142;2024-02-23T00:28:53;97696.16;;;6.36;100.00
66560;BME280;53413;49.878;8.142;2024-02-23T00:31:18;97695.59;;;6.31;100.00
66560;BME280;53413;49.878;8.142;2024-02-23T00:33:43;97697.59;;;6.26;100.00
66560;BME280;53413;49.878;8.142;2024-02-23T00:36:09;97695.34;;;6.20;100.00
66560;BME280;53413;49.878;8.142;2024-02-23T00:38:34;97709.47;;;6.15;100.00
66560;BME280;53413;49.878;8.142;2024-02-23T00:40:59;97696.81;;;6.09;100.00
66560;BME280;53413;49.878;8.142;2024-02-23T00:43:25;97707.41;;;6.06;100.00
66560;BME280;53413;49.878;8.142;2024-02-23T00:45:50;97707.56;;;6.03;100.00
66560;BME280;53413;49.878;8.142;2024-02-23T00:48:15;97720.97;;;5.95;100.00
66560;BME280;53413;49.878;8.142;2024-02-23T00:50:41;97721.56;;;5.84;100.00
66560;BME280;53413;49.878;8.142;2024-02-23T00:53:06;97731.66;;;5.75;100.00
66560;BME280;53413;49.878;8.142;2024-02-23T00:55:31;97741.38;;;5.71;100.00
66560;BME280;53413;49.878;8.142;2024-02-23T00:57:57;97743.28;;;5.67;100.00
66560;BME280;53413;49.878;8.142;2024-02-23T01:00:22;97753.16;;;5.61;100.00
66560;BME280;53413;49.878;8.142;2024-02-23T01:02:48;97752.50;;;5.57;100.00
66560;BME280;53413;49.878;8.142;2024-02-23T01:05:13;97752.59;;;5.55;100.00
66560;BME280;53413;49.878;8.142;2024-02-23T01:07:39;97759.63;;;5.53;100.00
66560;BME280;53413;49.878;8.142;2024-02-23T01:10:05;97746.91;;;5.49;100.00
66560;BME280;53413;49.878;8.142;2024-02-23T01:12:30;97749.91;;;5.41;100.00
66560;BME280;53413;49.878;8.142;2024-02-23T01:14:55;97755.44;;;5.35;100.00
66560;BME280;53413;49.878;8.142;2024-02-23T01:17:21;97765.47;;;5.25;100.00
66560;BME280;53413;49.878;8.142;2024-02-23T01:19:46;97769.53;;;5.13;100.00
66560;BME280;53413;49.878;8.142;2024-02-23T01:22:11;97768.94;;;5.08;100.00
66560;BME280;53413;49.878;8.142;2024-02-23T01:24:37;97766.66;;;5.02;100.00
66560;BME280;53413;49.878;8.142;2024-02-23T01:27:02;97760.94;;;4.95;100.00
66560;BME280;53413;49.878;8.142;2024-02-23T01:29:28;97759.50;;;4.89;100.00
66560;BME280;53413;49.878;8.142;2024-02-23T01:31:53;97764.88;;;4.86;100.00
66560;BME280;53413;49.878;8.142;2024-02-23T01:34:22;97768.38;;;4.85;100.00
66560;BME280;53413;49.878;8.142;2024-02-23T01:36:47;97780.72;;;4.80;100.00
66560;BME280;53413;49.878;8.142;2024-02-23T01:39:12;97779.28;;;4.74;100.00
66560;BME280;53413;49.878;8.142;2024-02-23T01:41:38;97783.94;;;4.68;100.00
66560;BME280;53413;49.878;8.142;2024-02-23T01:44:04;97797.25;;;4.61;100.00
66560;BME280;53413;49.878;8.142;2024-02-23T01:46:32;97794.94;;;4.55;100.00
66560;BME280;53413;49.878;8.142;2024-02-23T01:48:57;97804.72;;;4.50;100.00
66560;BME280;53413;49.878;8.142;2024-02-23T01:51:24;97804.84;;;4.47;100.00
66560;BME280;53413;49.878;8.142;2024-02-23T01:53:50;97807.69;;;4.42;100.00
66560;BME280;53413;49.878;8.142;2024-02-23T01:56:16;97818.28;;;4.38;100.00
66560;BME280;53413;49.878;8.142;2024-02-23T01:58:44;97828.84;;;4.33;100.00
66560;BME280;53413;49.878;8.142;2024-02-23T02:01:10;97829.00;;;4.30;100.00
66560;BME280;53413;49.878;8.142;2024-02-23T02:03:37;97829.16;;;4.27;100.00
66560;BME280;53413;49.878;8.142;2024-02-23T02:06:04;97829.44;;;4.21;100.00
66560;BME280;53413;49.878;8.142;2024-02-23T02:08:30;97835.69;;;4.16;100.00
66560;BME280;53413;49.878;8.142;2024-02-23T02:10:55;97843.59;;;4.13;100.00
66560;BME280;53413;49.878;8.142;2024-02-23T02:13:21;97838.63;;;4.09;100.00
66560;BME280;53413;49.878;8.142;2024-02-23T02:15:46;97837.03;;;4.06;100.00
66560;BME280;53413;49.878;8.142;2024-02-23T02:18:11;97837.16;;;4.03;100.00
66560;BME280;53413;49.878;8.142;2024-02-23T02:20:40;97842.66;;;3.97;100.00
66560;BME280;53413;49.878;8.142;2024-02-23T02:23:14;97841.94;;;3.93;100.00
66560;BME280;53413;49.878;8.142;2024-02-23T02:25:39;97839.56;;;3.89;100.00
66560;BME280;53413;49.878;8.142;2024-02-23T02:28:06;97838.16;;;3.81;100.00
66560;BME280;53413;49.878;8.142;2024-02-23T02:30:32;97836.56;;;3.79;100.00
66560;BME280;53413;49.878;8.142;2024-02-23T02:32:57;97845.25;;;3.78;100.00
66560;BME280;53413;49.878;8.142;2024-02-23T02:35:23;97849.66;;;3.76;100.00
66560;BME280;53413;49.878;8.142;2024-02-23T02:37:48;97853.34;;;3.70;100.00
66560;BME280;53413;49.878;8.142;2024-02-23T02:40:14;97851.72;;;3.67;100.00
66560;BME280;53413;49.878;8.142;2024-02-23T02:42:40;97855.38;;;3.63;100.00
66560;BME280;53413;49.878;8.142;2024-02-23T02:45:05;97858.09;;;3.60;100.00
66560;BME280;53413;49.878;8.142;2024-02-23T02:47:31;97864.06;;;3.62;100.00
66560;BME280;53413;49.878;8.142;2024-02-23T02:49:56;97869.84;;;3.67;100.00
66560;BME280;53413;49.878;8.142;2024-02-23T02:52:22;97873.22;;;3.69;100.00
66560;BME280;53413;49.878;8.142;2024-02-23T02:54:48;97879.31;;;3.68;100.00
66560;BME280;53413;49.878;8.142;2024-02-23T02:57:14;97884.66;;;3.65;100.00
66560;BME280;53413;49.878;8.142;2024-02-23T02:59:39;97888.16;;;3.64;100.00
66560;BME280;53413;49.878;8.142;2024-02-23T03:02:05;97884.78;;;3.62;100.00
66560;BME280;53413;49.878;8.142;2024-02-23T03:04:30;97891.56;;;3.65;100.00
66560;BME280;53413;49.878;8.142;2024-02-23T03:06:55;97881.28;;;3.63;100.00
66560;BME280;53413;49.878;8.142;2024-02-23T03:09:21;97899.41;;;3.63;100.00
66560;BME280;53413;49.878;8.142;2024-02-23T03:11:46;97901.22;;;3.61;100.00
66560;BME280;53413;49.878;8.142;2024-02-23T03:14:11;97902.25;;;3.57;100.00
66560;BME280;53413;49.878;8.142;2024-02-23T03:16:37;97904.13;;;3.53;100.00
66560;BME280;53413;49.878;8.142;2024-02-23T03:19:03;97906.81;;;3.52;100.00
66560;BME280;53413;49.878;8.142;2024-02-23T03:21:30;97912.13;;;3.49;100.00
66560;BME280;53413;49.878;8.142;2024-02-23T03:23:56;97902.66;;;3.48;100.00
66560;BME280;53413;49.878;8.142;2024-02-23T03:26:21;97904.34;;;3.49;100.00
66560;BME280;53413;49.878;8.142;2024-02-23T03:28:46;97908.75;;;3.47;100.00
66560;BME280;53413;49.878;8.142;2024-02-23T03:31:13;97902.72;;;3.46;100.00
66560;BME280;53413;49.878;8.142;2024-02-23T03:33:39;97897.56;;;3.46;100.00
66560;BME280;53413;49.878;8.142;2024-02-23T03:36:04;97895.78;;;3.47;100.00
66560;BME280;53413;49.878;8.142;2024-02-23T03:38:30;97896.84;;;3.43;100.00
66560;BME280;53413;49.878;8.142;2024-02-23T03:40:55;97893.50;;;3.41;100.00
66560;BME280;53413;49.878;8.142;2024-02-23T03:43:21;97896.06;;;3.41;100.00
66560;BME280;53413;49.878;8.142;2024-02-23T03:45:47;97892.72;;;3.38;100.00
66560;BME280;53413;49.878;8.142;2024-02-23T03:48:12;97891.03;;;3.37;100.00
66560;BME280;53413;49.878;8.142;2024-02-23T03:50:38;97895.28;;;3.38;100.00
66560;BME280;53413;49.878;8.142;2024-02-23T03:53:03;97891.94;;;3.36;100.00
66560;BME280;53413;49.878;8.142;2024-02-23T03:55:29;97899.81;;;3.33;100.00
66560;BME280;53413;49.878;8.142;2024-02-23T03:57:54;97894.78;;;3.30;100.00
66560;BME280;53413;49.878;8.142;2024-02-23T04:00:19;97896.59;;;3.28;100.00
66560;BME280;53413;49.878;8.142;2024-02-23T04:02:46;97902.56;;;3.30;100.00
66560;BME280;53413;49.878;8.142;2024-02-23T04:05:11;97907.75;;;3.30;100.00
66560;BME280;53413;49.878;8.142;2024-02-23T04:07:36;97906.69;;;3.34;100.00
66560;BME280;53413;49.878;8.142;2024-02-23T04:10:02;97905.78;;;3.35;100.00
66560;BME280;53413;49.878;8.142;2024-02-23T04:12:29;97912.72;;;3.35;100.00
66560;BME280;53413;49.878;8.142;2024-02-23T04:14:56;97917.16;;;3.31;100.00
66560;BME280;53413;49.878;8.142;2024-02-23T04:17:21;97924.28;;;3.26;100.00
66560;BME280;53413;49.878;8.142;2024-02-23T04:19:47;97922.69;;;3.23;100.00
66560;BME280;53413;49.878;8.142;2024-02-23T04:22:12;97917.63;;;3.20;100.00
66560;BME280;53413;49.878;8.142;2024-02-23T04:24:38;97919.50;;;3.17;100.00
66560;BME280;53413;49.878;8.142;2024-02-23T04:27:05;97921.34;;;3.13;100.00
66560;BME280;53413;49.878;8.142;2024-02-23T04:29:31;97917.88;;;3.14;100.00
66560;BME280;53413;49.878;8.142;2024-02-23T04:32:00;97916.25;;;3.12;100.00
66560;BME280;53413;49.878;8.142;2024-02-23T04:34:25;97911.97;;;3.11;100.00
66560;BME280;53413;49.878;8.142;2024-02-23T04:36:51;97907.72;;;3.10;100.00
66560;BME280;53413;49.878;8.142;2024-02-23T04:39:16;97912.88;;;3.10;100.00
66560;BME280;53413;49.878;8.142;2024-02-23T04:41:41;97905.97;;;3.10;100.00
66560;BME280;53413;49.878;8.142;2024-02-23T04:44:07;97902.41;;;3.13;100.00
66560;BME280;53413;49.878;8.142;2024-02-23T04:46:32;97912.50;;;3.19;100.00
66560;BME280;53413;49.878;8.142;2024-02-23T04:48:59;97907.28;;;3.20;100.00
66560;BME280;53413;49.878;8.142;2024-02-23T04:51:24;97911.47;;;3.23;100.00
66560;BME280;53413;49.878;8.142;2024-02-23T04:53:50;97905.41;;;3.24;100.00
66560;BME280;53413;49.878;8.142;2024-02-23T04:56:15;97914.84;;;3.25;100.00
66560;BME280;53413;49.878;8.142;2024-02-23T04:58:41;97914.84;;;3.25;100.00
66560;BME280;53413;49.878;8.142;2024-02-23T05:01:09;97915.50;;;3.30;100.00
66560;BME280;53413;49.878;8.142;2024-02-23T05:03:35;97913.47;;;3.37;100.00
66560;BME280;53413;49.878;8.142;2024-02-23T05:06:04;97915.09;;;3.39;100.00
66560;BME280;53413;49.878;8.142;2024-02-23T05:08:30;97915.72;;;3.45;100.00
66560;BME280;53413;49.878;8.142;2024-02-23T05:10:56;97924.06;;;3.51;100.00
66560;BME280;53413;49.878;8.142;2024-02-23T05:13:22;97923.88;;;3.56;100.00
66560;BME280;53413;49.878;8.142;2024-02-23T05:15:48;97929.63;;;3.63;100.00
66560;BME280;53413;49.878;8.142;2024-02-23T05:18:13;97929.84;;;3.58;100.00
66560;BME280;53413;49.878;8.142;2024-02-23T05:20:38;97928.31;;;3.54;100.00
66560;BME280;53413;49.878;8.142;2024-02-23T05:23:04;97933.47;;;3.54;100.00
66560;BME280;53413;49.878;8.142;2024-02-23T05:25:29;97929.34;;;3.50;100.00
66560;BME280;53413;49.878;8.142;2024-02-23T05:27:55;97918.31;;;3.45;100.00
66560;BME280;53413;49.878;8.142;2024-02-23T05:30:20;97913.00;;;3.48;100.00
66560;BME280;53413;49.878;8.142;2024-02-23T05:32:45;97909.81;;;3.43;100.00
66560;BME280;53413;49.878;8.142;2024-02-23T05:35:12;97908.38;;;3.35;100.00
66560;BME280;53413;49.878;8.142;2024-02-23T05:37:37;97908.38;;;3.35;100.00
66560;BME280;53413;49.878;8.142;2024-02-23T05:40:03;97905.00;;;3.33;100.00
66560;BME280;53413;49.878;8.142;2024-02-23T05:42:32;97904.75;;;3.39;100.00
66560;BME280;53413;49.878;8.142;2024-02-23T05:44:57;97910.31;;;3.51;100.00
66560;BME280;53413;49.878;8.142;2024-02-23T05:47:23;97907.31;;;3.60;100.00
66560;BME280;53413;49.878;8.142;2024-02-23T05:49:50;97909.91;;;3.60;100.00
66560;BME280;53413;49.878;8.142;2024-02-23T05:52:15;97924.66;;;3.58;100.00
66560;BME280;53413;49.878;8.142;2024-02-23T05:54:40;97929.97;;;3.55;100.00
66560;BME280;53413;49.878;8.142;2024-02-23T05:57:06;97936.50;;;3.64;100.00
66560;BME280;53413;49.878;8.142;2024-02-23T05:59:31;97950.88;;;3.71;100.00
66560;BME280;53413;49.878;8.142;2024-02-23T06:01:57;97952.50;;;3.74;100.00
66560;BME280;53413;49.878;8.142;2024-02-23T06:04:25;97949.91;;;3.74;100.00
66560;BME280;53413;49.878;8.142;2024-02-23T06:06:51;97954.75;;;3.81;100.00
66560;BME280;53413;49.878;8.142;2024-02-23T06:09:17;97958.31;;;3.79;100.00
66560;BME280;53413;49.878;8.142;2024-02-23T06:11:42;97960.91;;;3.79;100.00
66560;BME280;53413;49.878;8.142;2024-02-23T06:14:08;97968.81;;;3.76;100.00
66560;BME280;53413;49.878;8.142;2024-02-23T06:16:33;97969.06;;;3.69;100.00
66560;BME280;53413;49.878;8.142;2024-02-23T06:18:59;97971.53;;;3.73;100.00
66560;BME280;53413;49.878;8.142;2024-02-23T06:21:24;97975.59;;;3.78;100.00
66560;BME280;53413;49.878;8.142;2024-02-23T06:23:50;97975.16;;;3.89;100.00
66560;BME280;53413;49.878;8.142;2024-02-23T06:26:15;97980.53;;;4.04;100.00
66560;BME280;53413;49.878;8.142;2024-02-23T06:28:41;97976.50;;;4.17;100.00
66560;BME280;53413;49.878;8.142;2024-02-23T06:31:08;97992.41;;;4.28;100.00
66560;BME280;53413;49.878;8.142;2024-02-23T06:33:33;97997.31;;;4.35;100.00
66560;BME280;53413;49.878;8.142;2024-02-23T06:35:59;97998.72;;;4.42;100.00
66560;BME280;53413;49.878;8.142;2024-02-23T06:38:24;98003.47;;;4.51;100.00
66560;BME280;53413;49.878;8.142;2024-02-23T06:40:51;98016.97;;;4.59;100.00
66560;BME280;53413;49.878;8.142;2024-02-23T06:43:16;98021.84;;;4.66;100.00
66560;BME280;53413;49.878;8.142;2024-02-23T06:45:42;98019.91;;;4.71;100.00
66560;BME280;53413;49.878;8.142;2024-02-23T06:48:08;98022.41;;;4.72;100.00
66560;BME280;53413;49.878;8.142;2024-02-23T06:50:33;98017.00;;;4.77;100.00
66560;BME280;53413;49.878;8.142;2024-02-23T06:52:58;98021.16;;;4.81;100.00
66560;BME280;53413;49.878;8.142;2024-02-23T06:55:24;98017.09;;;4.75;100.00
66560;BME280;53413;49.878;8.142;2024-02-23T06:57:49;98035.59;;;4.68;100.00
66560;BME280;53413;49.878;8.142;2024-02-23T07:00:15;98032.53;;;4.59;100.00
66560;BME280;53413;49.878;8.142;2024-02-23T07:02:40;98039.09;;;4.67;100.00
66560;BME280;53413;49.878;8.142;2024-02-23T07:05:06;98036.56;;;4.84;100.00
66560;BME280;53413;49.878;8.142;2024-02-23T07:07:32;98033.31;;;4.98;100.00
66560;BME280;53413;49.878;8.142;2024-02-23T07:09:59;98037.94;;;5.11;100.00
66560;BME280;53413;49.878;8.142;2024-02-23T07:12:24;98039.13;;;5.22;100.00
66560;BME280;53413;49.878;8.142;2024-02-23T07:14:52;98038.56;;;5.33;100.00
66560;BME280;53413;49.878;8.142;2024-02-23T07:17:17;98035.59;;;5.41;100.00
66560;BME280;53413;49.878;8.142;2024-02-23T07:19:43;98042.94;;;5.50;100.00
66560;BME280;53413;49.878;8.142;2024-02-23T07:22:09;98044.34;;;5.58;100.00
66560;BME280;53413;49.878;8.142;2024-02-23T07:24:39;98044.78;;;5.66;100.00
66560;BME280;53413;49.878;8.142;2024-02-23T07:27:05;98043.50;;;5.75;100.00
66560;BME280;53413;49.878;8.142;2024-02-23T07:29:31;98049.22;;;5.81;100.00
66560;BME280;53413;49.878;8.142;2024-02-23T07:31:56;98045.38;;;5.89;100.00
66560;BME280;53413;49.878;8.142;2024-02-23T07:34:21;98045.91;;;5.95;100.00
66560;BME280;53413;49.878;8.142;2024-02-23T07:36:47;98046.59;;;5.99;100.00
66560;BME280;53413;49.878;8.142;2024-02-23T07:39:13;98037.91;;;6.00;100.00
66560;BME280;53413;49.878;8.142;2024-02-23T07:41:38;98034.16;;;6.06;100.00
66560;BME280;53413;49.878;8.142;2024-02-23T07:44:04;98036.03;;;6.20;100.00
66560;BME280;53413;49.878;8.142;2024-02-23T07:46:29;98041.53;;;6.31;100.00
66560;BME280;53413;49.878;8.142;2024-02-23T07:48:54;98041.97;;;6.39;100.00
66560;BME280;53413;49.878;8.142;2024-02-23T07:51:20;98040.13;;;6.41;100.00
66560;BME280;53413;49.878;8.142;2024-02-23T07:53:45;98049.69;;;6.41;100.00
66560;BME280;53413;49.878;8.142;2024-02-23T07:56:10;98057.19;;;6.47;100.00
66560;BME280;53413;49.878;8.142;2024-02-23T07:58:37;98057.00;;;6.50;100.00
66560;BME280;53413;49.878;8.142;2024-02-23T08:01:02;98047.28;;;6.54;100.00
66560;BME280;53413;49.878;8.142;2024-02-23T08:03:27;98051.47;;;6.56;100.00
66560;BME280;53413;49.878;8.142;2024-02-23T08:05:53;98049.94;;;6.52;100.00
66560;BME280;53413;49.878;8.142;2024-02-23T08:08:18;98050.88;;;6.51;100.00
66560;BME280;53413;49.878;8.142;2024-02-23T08:10:44;98048.09;;;6.54;100.00
66560;BME280;53413;49.878;8.142;2024-02-23T08:13:09;98039.22;;;6.58;100.00
66560;BME280;53413;49.878;8.142;2024-02-23T08:15:35;98037.13;;;6.65;100.00
66560;BME280;53413;49.878;8.142;2024-02-23T08:18:01;98041.00;;;6.90;100.00
66560;BME280;53413;49.878;8.142;2024-02-23T08:20:26;98038.38;;;7.06;100.00
66560;BME280;53413;49.878;8.142;2024-02-23T08:22:52;98045.66;;;7.92;100.00
66560;BME280;53413;49.878;8.142;2024-02-23T08:25:17;98055.31;;;7.90;100.00
66560;BME280;53413;49.878;8.142;2024-02-23T08:27:43;98049.63;;;7.69;100.00
66560;BME280;53413;49.878;8.142;2024-02-23T08:30:08;98048.38;;;7.60;100.00
66560;BME280;53413;49.878;8.142;2024-02-23T08:32:36;98053.22;;;7.66;100.00
66560;BME280;53413;49.878;8.142;2024-02-23T08:35:01;98053.84;;;7.55;100.00
66560;BME280;53413;49.878;8.142;2024-02-23T08:37:27;98062.88;;;7.50;100.00
66560;BME280;53413;49.878;8.142;2024-02-23T08:39:53;98059.13;;;7.54;100.00
66560;BME280;53413;49.878;8.142;2024-02-23T08:42:19;98056.03;;;7.78;100.00
66560;BME280;53413;49.878;8.142;2024-02-23T08:44:44;98060.69;;;8.03;100.00
66560;BME280;53413;49.878;8.142;2024-02-23T08:47:10;98056.66;;;8.12;100.00
66560;BME280;53413;49.878;8.142;2024-02-23T08:49:35;98065.97;;;8.01;100.00
66560;BME280;53413;49.878;8.142;2024-02-23T08:52:00;98070.97;;;7.90;100.00
66560;BME280;53413;49.878;8.142;2024-02-23T08:54:27;98061.84;;;7.83;100.00
66560;BME280;53413;49.878;8.142;2024-02-23T08:56:52;98063.69;;;7.81;100.00
66560;BME280;53413;49.878;8.142;2024-02-23T08:59:18;98058.47;;;7.81;100.00
66560;BME280;53413;49.878;8.142;2024-02-23T09:01:43;98060.03;;;7.99;100.00
66560;BME280;53413;49.878;8.142;2024-02-23T09:04:09;98056.41;;;8.31;100.00
66560;BME280;53413;49.878;8.142;2024-02-23T09:06:35;98062.31;;;8.49;99.08
66560;BME280;53413;49.878;8.142;2024-02-23T09:09:00;98048.28;;;8.79;95.62
66560;BME280;53413;49.878;8.142;2024-02-23T09:11:25;98049.63;;;10.59;87.68
66560;BME280;53413;49.878;8.142;2024-02-23T09:13:51;98048.56;;;11.72;82.27
66560;BME280;53413;49.878;8.142;2024-02-23T09:16:16;98044.06;;;12.32;77.15
66560;BME280;53413;49.878;8.142;2024-02-23T09:18:42;98040.59;;;12.77;74.20
66560;BME280;53413;49.878;8.142;2024-02-23T09:21:08;98030.88;;;16.09;64.06
66560;BME280;53413;49.878;8.142;2024-02-23T09:23:33;98026.63;;;15.88;58.70
66560;BME280;53413;49.878;8.142;2024-02-23T09:25:59;98036.63;;;14.13;61.21
66560;BME280;53413;49.878;8.142;2024-02-23T09:28:25;98037.72;;;12.46;64.14
66560;BME280;53413;49.878;8.142;2024-02-23T09:30:50;98036.38;;;12.06;67.16
66560;BME280;53413;49.878;8.142;2024-02-23T09:33:15;98032.59;;;11.75;67.39
66560;BME280;53413;49.878;8.142;2024-02-23T09:35:41;98031.94;;;11.24;69.86
66560;BME280;53413;49.878;8.142;2024-02-23T09:38:06;98032.31;;;11.06;69.91
66560;BME280;53413;49.878;8.142;2024-02-23T09:40:31;98011.63;;;18.27;56.06
66560;BME280;53413;49.878;8.142;2024-02-23T09:42:58;98006.56;;;22.59;45.43
66560;BME280;53413;49.878;8.142;2024-02-23T09:45:27;98002.69;;;27.70;35.43
66560;BME280;53413;49.878;8.142;2024-02-23T09:47:57;98018.34;;;30.49;30.64
66560;BME280;53413;49.878;8.142;2024-02-23T09:50:23;98013.00;;;32.55;27.68
66560;BME280;53413;49.878;8.142;2024-02-23T09:52:50;98022.78;;;32.00;27.14
66560;BME280;53413;49.878;8.142;2024-02-23T09:55:25;98031.84;;;33.34;26.23
66560;BME280;53413;49.878;8.142;2024-02-23T09:57:52;98038.38;;;29.70;27.88
66560;BME280;53413;49.878;8.142;2024-02-23T10:00:22;98040.50;;;24.89;32.64
66560;BME280;53413;49.878;8.142;2024-02-23T10:02:48;98048.94;;;20.12;38.63
66560;BME280;53413;49.878;8.142;2024-02-23T10:05:15;98051.41;;;17.46;43.43
66560;BME280;53413;49.878;8.142;2024-02-23T10:07:42;98056.22;;;15.43;46.18
66560;BME280;53413;49.878;8.142;2024-02-23T10:10:08;98058.47;;;14.25;50.04
66560;BME280;53413;49.878;8.142;2024-02-23T10:12:36;98055.16;;;13.36;52.52
66560;BME280;53413;49.878;8.142;2024-02-23T10:15:02;98063.75;;;12.60;54.98
66560;BME280;53413;49.878;8.142;2024-02-23T10:17:30;98056.84;;;12.48;56.06
66560;BME280;53413;49.878;8.142;2024-02-23T10:19:55;98052.03;;;12.87;56.42
66560;BME280;53413;49.878;8.142;2024-02-23T10:22:22;98058.13;;;12.76;57.09
66560;BME280;53413;49.878;8.142;2024-02-23T10:24:50;98054.84;;;11.93;57.73
66560;BME280;53413;49.878;8.142;2024-02-23T10:27:15;98056.22;;;11.26;61.13
66560;BME280;53413;49.878;8.142;2024-02-23T10:29:41;98063.38;;;11.00;61.55
66560;BME280;53413;49.878;8.142;2024-02-23T10:32:06;98056.03;;;11.29;61.80
66560;BME280;53413;49.878;8.142;2024-02-23T10:34:36;98058.19;;;11.11;62.66
66560;BME280;53413;49.878;8.142;2024-02-23T10:37:06;98065.44;;;11.07;63.08
66560;BME280;53413;49.878;8.142;2024-02-23T10:39:33;98050.63;;;11.44;63.20
66560;BME280;53413;49.878;8.142;2024-02-23T10:42:03;98053.22;;;11.79;63.30
66560;BME280;53413;49.878;8.142;2024-02-23T10:44:29;98050.72;;;11.42;63.38
66560;BME280;53413;49.878;8.142;2024-02-23T10:46:55;98051.88;;;10.76;64.05
66560;BME280;53413;49.878;8.142;2024-02-23T10:49:23;98060.41;;;10.41;65.18
66560;BME280;53413;49.878;8.142;2024-02-23T10:51:51;98069.84;;;10.18;66.11
66560;BME280;53413;49.878;8.142;2024-02-23T10:54:17;98055.91;;;10.17;66.25
66560;BME280;53413;49.878;8.142;2024-02-23T10:56:47;98047.75;;;10.61;66.05
66560;BME280;53413;49.878;8.142;2024-02-23T10:59:12;98052.53;;;10.80;65.35
66560;BME280;53413;49.878;8.142;2024-02-23T11:01:39;98052.13;;;11.11;66.67
66560;BME280;53413;49.878;8.142;2024-02-23T11:04:06;98047.78;;;11.47;66.59
66560;BME280;53413;49.878;8.142;2024-02-23T11:06:33;98037.78;;;11.63;65.47
66560;BME280;53413;49.878;8.142;2024-02-23T11:09:06;98024.59;;;11.40;66.90
66560;BME280;53413;49.878;8.142;2024-02-23T11:11:36;98029.38;;;11.35;65.50
66560;BME280;53413;49.878;8.142;2024-02-23T11:14:03;98027.00;;;11.44;65.32
66560;BME280;53413;49.878;8.142;2024-02-23T11:16:32;98026.16;;;11.79;64.00
66560;BME280;53413;49.878;8.142;2024-02-23T11:19:04;98022.31;;;11.60;63.47
66560;BME280;53413;49.878;8.142;2024-02-23T11:21:37;98025.13;;;10.97;63.18
66560;BME280;53413;49.878;8.142;2024-02-23T11:24:04;98021.19;;;10.78;66.02
66560;BME280;53413;49.878;8.142;2024-02-23T11:26:30;98026.59;;;10.64;65.32
66560;BME280;53413;49.878;8.142;2024-02-23T11:28:57;98029.81;;;10.29;67.50
66560;BME280;53413;49.878;8.142;2024-02-23T11:31:24;98031.28;;;10.07;67.31
66560;BME280;53413;49.878;8.142;2024-02-23T11:33:50;98034.84;;;9.93;68.91
66560;BME280;53413;49.878;8.142;2024-02-23T11:36:29;98023.13;;;10.12;70.33
66560;BME280;53413;49.878;8.142;2024-02-23T11:38:57;98022.94;;;10.28;68.71
66560;BME280;53413;49.878;8.142;2024-02-23T11:41:23;98021.03;;;10.56;70.34
66560;BME280;53413;49.878;8.142;2024-02-23T11:43:50;98018.19;;;10.59;68.13
66560;BME280;53413;49.878;8.142;2024-02-23T11:46:16;98032.88;;;10.49;69.61
66560;BME280;53413;49.878;8.142;2024-02-23T11:48:42;98008.16;;;10.40;68.58
66560;BME280;53413;49.878;8.142;2024-02-23T11:51:09;98019.50;;;10.40;66.26
66560;BME280;53413;49.878;8.142;2024-02-23T11:53:36;98026.16;;;10.31;66.16
66560;BME280;53413;49.878;8.142;2024-02-23T11:56:06;98038.22;;;10.47;66.39
66560;BME280;53413;49.878;8.142;2024-02-23T11:58:35;98035.06;;;10.55;65.65
66560;BME280;53413;49.878;8.142;2024-02-23T12:01:01;98035.06;;;10.55;66.35
66560;BME280;53413;49.878;8.142;2024-02-23T12:03:28;98038.56;;;10.80;67.34
66560;BME280;53413;49.878;8.142;2024-02-23T12:05:57;98029.28;;;10.75;63.66
66560;BME280;53413;49.878;8.142;2024-02-23T12:08:24;98030.06;;;10.52;62.89
66560;BME280;53413;49.878;8.142;2024-02-23T12:10:51;98029.84;;;10.16;64.61
66560;BME280;53413;49.878;8.142;2024-02-23T12:13:16;98040.09;;;10.06;65.68
66560;BME280;53413;49.878;8.142;2024-02-23T12:15:42;98037.81;;;10.40;63.43
66560;BME280;53413;49.878;8.142;2024-02-23T12:18:10;98035.28;;;10.26;62.36
66560;BME280;53413;49.878;8.142;2024-02-23T12:20:35;98041.34;;;10.26;61.69
66560;BME280;53413;49.878;8.142;2024-02-23T12:23:01;98037.38;;;10.34;61.58
66560;BME280;53413;49.878;8.142;2024-02-23T12:25:26;98034.47;;;10.38;60.99
66560;BME280;53413;49.878;8.142;2024-02-23T12:27:56;98028.47;;;10.49;62.22
66560;BME280;53413;49.878;8.142;2024-02-23T12:30:28;98024.16;;;10.61;61.85
66560;BME280;53413;49.878;8.142;2024-02-23T12:33:06;98027.41;;;10.65;60.49
66560;BME280;53413;49.878;8.142;2024-02-23T12:35:33;98027.72;;;10.60;60.83
66560;BME280;53413;49.878;8.142;2024-02-23T12:37:59;98038.75;;;10.52;60.81
66560;BME280;53413;49.878;8.142;2024-02-23T12:40:24;98029.09;;;10.53;61.56
66560;BME280;53413;49.878;8.142;2024-02-23T12:42:49;98033.16;;;10.70;61.14
66560;BME280;53413;49.878;8.142;2024-02-23T12:45:15;98025.78;;;10.88;60.80
66560;BME280;53413;49.878;8.142;2024-02-23T12:47:40;98032.47;;;10.92;59.90
66560;BME280;53413;49.878;8.142;2024-02-23T12:50:06;98032.38;;;10.81;59.83
66560;BME280;53413;49.878;8.142;2024-02-23T12:52:33;98028.09;;;10.80;60.80
66560;BME280;53413;49.878;8.142;2024-02-23T12:54:59;98027.81;;;11.08;60.75